Time;durP1;ratioP1;P1;durP2;ratioP2;P2;SDS_P1;SDS_P2;PMS_P1;PMS_P2;Temp;Humidity;BMP_temperature;BMP_pressure;BME280_temperature;BME280_humidity;BME280_pressure;Samples;Min_cycle;Max_cycle;Signal;HPM_P1;HPM_P2
2022/03/13 00:01:01;;;;;;;;;;;;;;;21.15;36.98;101756.03;5067036;28;4264;-45
2022/03/13 00:03:30;;;;;;;;;;;;;;;21.14;37.19;101748.75;5068397;28;4363;-46
2022/03/13 00:05:57;;;;;;;;;;;;;;;21.14;37.18;101757.38;5068660;28;4133;-48
2022/03/13 00:08:27;;;;;;;;;;;;;;;21.16;36.98;101754.63;5069991;28;5002;-46
2022/03/13 00:10:56;;;;;;;;;;;;;;;21.15;37.02;101756.03;5067126;28;4116;-46
2022/03/13 00:13:30;;;;;;;;;;;;;;;21.14;36.98;101754.50;5066163;28;4222;-46
2022/03/13 00:15:59;;;;;;;;;;;;;;;21.44;36.54;101751.88;5067801;28;4086;-45
2022/03/13 00:18:25;;;;;;;;;;;;;;;21.54;36.42;101749.59;5068362;28;4107;-46
2022/03/13 00:20:51;;;;;;;;;;;;;;;21.57;36.46;101753.31;5069525;28;4260;-45
2022/03/13 00:23:19;;;;;;;;;;;;;;;21.54;36.30;101744.56;5068128;28;5088;-47
2022/03/13 00:25:46;;;;;;;;;;;;;;;21.54;36.14;101750.31;5072209;28;4194;-48
2022/03/13 00:28:12;;;;;;;;;;;;;;;21.55;36.24;101753.94;5069067;28;4126;-46
2022/03/13 00:30:40;;;;;;;;;;;;;;;21.54;36.25;101749.59;5069444;28;4173;-47
2022/03/13 00:33:07;;;;;;;;;;;;;;;21.54;36.15;101746.69;5070430;28;4179;-46
2022/03/13 00:35:33;;;;;;;;;;;;;;;21.55;36.19;101751.06;5065304;28;4042;-45
2022/03/13 00:38:00;;;;;;;;;;;;;;;21.55;36.21;101748.19;5067286;28;4058;-50
2022/03/13 00:40:26;;;;;;;;;;;;;;;21.54;36.34;101749.59;5064292;28;4126;-49
2022/03/13 00:42:54;;;;;;;;;;;;;;;21.53;36.18;101756.72;5069204;28;5194;-47
2022/03/13 00:45:20;;;;;;;;;;;;;;;21.18;36.78;101748.25;5065901;28;5225;-48
2022/03/13 00:47:46;;;;;;;;;;;;;;;21.13;36.91;101747.25;5071497;28;4162;-45
2022/03/13 00:50:13;;;;;;;;;;;;;;;21.12;36.96;101745.78;5066695;28;4358;-47
2022/03/13 00:52:41;;;;;;;;;;;;;;;21.12;36.90;101752.28;5063179;28;4205;-50
2022/03/13 00:55:07;;;;;;;;;;;;;;;21.13;37.02;101753.03;5069476;28;4085;-48
2022/03/13 00:57:34;;;;;;;;;;;;;;;21.11;36.99;101750.75;5072192;28;4077;-46
2022/03/13 01:00:00;;;;;;;;;;;;;;;21.12;36.93;101748.66;5066768;28;4672;-45
2022/03/13 01:02:26;;;;;;;;;;;;;;;21.11;36.87;101744.25;5066236;28;4177;-46
2022/03/13 01:04:53;;;;;;;;;;;;;;;21.10;36.94;101742.78;5064433;28;4003;-45
2022/03/13 01:07:19;;;;;;;;;;;;;;;21.10;36.79;101739.91;5067332;28;4210;-46
2022/03/13 01:09:46;;;;;;;;;;;;;;;21.10;36.74;101748.53;5066323;28;4085;-48
2022/03/13 01:12:12;;;;;;;;;;;;;;;21.10;36.81;101742.78;5073369;28;4223;-47
2022/03/13 01:14:39;;;;;;;;;;;;;;;21.12;36.98;101754.41;5071702;27;4047;-46
2022/03/13 01:17:06;;;;;;;;;;;;;;;21.12;36.88;101746.53;5071419;28;4938;-45
2022/03/13 01:19:32;;;;;;;;;;;;;;;21.12;37.00;101748.66;5073377;28;4646;-48
2022/03/13 01:21:59;;;;;;;;;;;;;;;21.13;36.90;101753.03;5075180;28;4176;-48
2022/03/13 01:24:28;;;;;;;;;;;;;;;21.12;37.06;101754.41;5071337;28;4203;-46
2022/03/13 01:27:01;;;;;;;;;;;;;;;21.12;36.69;101754.41;5068844;27;4233;-46
2022/03/13 01:29:27;;;;;;;;;;;;;;;21.09;36.89;101747.75;5065515;28;4410;-46
2022/03/13 01:31:54;;;;;;;;;;;;;;;21.09;37.02;101741.25;5072023;28;4237;-47
2022/03/13 01:34:36;;;;;;;;;;;;;;;21.08;36.83;101745.53;5070523;28;4066;-45
2022/03/13 01:37:03;;;;;;;;;;;;;;;21.06;36.69;101733.91;5064591;28;5859;-47
2022/03/13 01:39:29;;;;;;;;;;;;;;;21.09;36.71;101742.00;5068196;27;4196;-46
2022/03/13 01:41:56;;;;;;;;;;;;;;;21.10;36.73;101731.25;5071398;28;4082;-45
2022/03/13 01:44:23;;;;;;;;;;;;;;;21.09;36.77;101742.00;5066965;28;4004;-48
2022/03/13 01:46:49;;;;;;;;;;;;;;;21.08;36.90;101742.66;5065237;28;4082;-46
2022/03/13 01:49:20;;;;;;;;;;;;;;;21.09;36.88;101738.38;5069935;27;4181;-45
2022/03/13 01:51:46;;;;;;;;;;;;;;;21.08;36.86;101739.78;5064481;28;4322;-49
2022/03/13 01:54:13;;;;;;;;;;;;;;;21.08;36.92;101736.91;5065390;28;4013;-46
2022/03/13 01:56:39;;;;;;;;;;;;;;;21.07;36.84;101738.25;5066067;28;4234;-46
2022/03/13 01:59:06;;;;;;;;;;;;;;;21.10;36.69;101739.91;5069942;28;4125;-47
2022/03/13 02:01:32;;;;;;;;;;;;;;;21.11;36.77;101744.25;5065736;28;4087;-47
2022/03/13 02:03:59;;;;;;;;;;;;;;;21.11;36.79;101741.38;5071530;28;4113;-45
2022/03/13 02:06:26;;;;;;;;;;;;;;;21.11;36.89;101739.25;5067446;28;4172;-47
2022/03/13 02:08:54;;;;;;;;;;;;;;;21.10;36.82;101734.13;5064125;28;4052;-47
2022/03/13 02:11:24;;;;;;;;;;;;;;;21.10;36.98;101731.25;5062922;28;4213;-47
2022/03/13 02:13:51;;;;;;;;;;;;;;;21.10;36.81;101725.50;5070773;28;4067;-45
2022/03/13 02:16:18;;;;;;;;;;;;;;;21.08;36.76;101722.50;5066784;28;4181;-48
2022/03/13 02:18:46;;;;;;;;;;;;;;;21.06;36.90;101728.88;5068418;27;4078;-50
2022/03/13 02:21:12;;;;;;;;;;;;;;;21.05;36.87;101724.53;5067039;28;4132;-46
2022/03/13 02:23:39;;;;;;;;;;;;;;;21.07;36.86;101726.75;5070247;28;4069;-46
2022/03/13 02:26:06;;;;;;;;;;;;;;;21.05;36.75;101720.88;5066479;28;4108;-49
2022/03/13 02:28:33;;;;;;;;;;;;;;;21.07;36.86;101721.00;5069344;28;4074;-45
2022/03/13 02:31:00;;;;;;;;;;;;;;;21.07;36.80;101723.88;5069330;28;4070;-45
2022/03/13 02:33:27;;;;;;;;;;;;;;;21.06;36.84;101719.50;5066956;28;4234;-46
2022/03/13 02:35:54;;;;;;;;;;;;;;;21.03;36.88;101709.25;5072478;28;4058;-46
2022/03/13 02:38:21;;;;;;;;;;;;;;;21.05;36.84;101715.88;5071553;28;5325;-46
2022/03/13 02:40:47;;;;;;;;;;;;;;;21.05;36.89;101712.22;5069976;28;4150;-46
2022/03/13 02:43:14;;;;;;;;;;;;;;;21.04;36.84;101714.38;5067833;28;5502;-46
2022/03/13 02:45:40;;;;;;;;;;;;;;;21.05;36.87;101718.00;5065697;28;4115;-48
2022/03/13 02:48:07;;;;;;;;;;;;;;;21.05;36.70;101718.00;5070328;28;4042;-46
2022/03/13 02:50:33;;;;;;;;;;;;;;;21.04;36.76;101722.25;5067052;28;4121;-45
2022/03/13 02:53:00;;;;;;;;;;;;;;;21.04;36.81;101716.50;5075054;28;4178;-48
2022/03/13 02:55:26;;;;;;;;;;;;;;;21.05;36.72;101726.63;5070796;28;4150;-46
2022/03/13 02:57:52;;;;;;;;;;;;;;;21.06;36.67;101731.03;5073832;27;4207;-47
2022/03/13 03:00:19;;;;;;;;;;;;;;;21.06;36.78;101728.13;5071896;28;4045;-46
2022/03/13 03:02:46;;;;;;;;;;;;;;;21.06;36.89;101731.75;5075135;28;4304;-46
2022/03/13 03:05:12;;;;;;;;;;;;;;;21.04;36.76;101722.25;5073474;28;4045;-46
2022/03/13 03:07:39;;;;;;;;;;;;;;;21.05;36.72;101718.00;5075349;28;5494;-46
2022/03/13 03:10:10;;;;;;;;;;;;;;;21.05;36.79;101723.75;5073321;28;3995;-45
2022/03/13 03:12:36;;;;;;;;;;;;;;;21.04;36.78;101711.47;5075027;28;4092;-46
2022/03/13 03:15:03;;;;;;;;;;;;;;;21.03;36.81;101717.91;5073979;28;4176;-46
2022/03/13 03:17:29;;;;;;;;;;;;;;;21.02;36.77;101716.38;5073553;28;4078;-46
2022/03/13 03:19:56;;;;;;;;;;;;;;;21.01;36.70;101717.78;5072765;28;4184;-46
2022/03/13 03:22:22;;;;;;;;;;;;;;;20.99;36.67;101715.53;5074352;28;4339;-46
2022/03/13 03:24:49;;;;;;;;;;;;;;;20.99;36.62;101715.53;5075162;28;4005;-46
2022/03/13 03:27:18;;;;;;;;;;;;;;;20.99;36.68;101720.53;5073912;28;4394;-45
2022/03/13 03:29:44;;;;;;;;;;;;;;;20.99;36.69;101709.03;5071194;28;4059;-46
2022/03/13 03:32:10;;;;;;;;;;;;;;;20.98;36.81;101710.38;5074642;27;5007;-45
2022/03/13 03:34:37;;;;;;;;;;;;;;;20.98;36.68;101714.03;5075776;28;4084;-46
2022/03/13 03:37:03;;;;;;;;;;;;;;;20.98;36.73;101710.38;5074017;28;4593;-46
2022/03/13 03:39:30;;;;;;;;;;;;;;;20.99;36.74;101709.03;5073881;28;4180;-45
2022/03/13 03:41:57;;;;;;;;;;;;;;;21.00;36.77;101710.50;5075917;28;5451;-46
2022/03/13 03:44:24;;;;;;;;;;;;;;;21.01;36.72;101709.13;5074664;28;4118;-48
2022/03/13 03:46:50;;;;;;;;;;;;;;;21.03;36.78;101709.25;5073136;28;4172;-46
2022/03/13 03:49:17;;;;;;;;;;;;;;;21.03;36.66;101715.75;5072115;28;4133;-48
2022/03/13 03:51:43;;;;;;;;;;;;;;;21.06;36.61;101713.75;5074145;28;4422;-47
2022/03/13 03:54:10;;;;;;;;;;;;;;;21.06;36.82;101713.75;5074727;28;5221;-46
2022/03/13 03:56:36;;;;;;;;;;;;;;;21.06;36.77;101714.47;5073603;28;4184;-45
2022/03/13 03:59:03;;;;;;;;;;;;;;;21.07;36.58;101715.22;5072470;28;4182;-47
2022/03/13 04:01:37;;;;;;;;;;;;;;;21.06;36.76;101716.63;5074734;28;4230;-47
2022/03/13 04:04:07;;;;;;;;;;;;;;;21.06;36.69;101710.84;5073224;28;5190;-46
2022/03/13 04:06:34;;;;;;;;;;;;;;;21.06;36.87;101707.97;5072148;28;4174;-46
2022/03/13 04:09:00;;;;;;;;;;;;;;;21.07;36.83;101709.47;5073429;28;4419;-46
2022/03/13 04:11:27;;;;;;;;;;;;;;;21.04;36.90;101708.59;5071823;28;4106;-47
2022/03/13 04:13:53;;;;;;;;;;;;;;;21.04;36.87;101710.75;5071406;28;4228;-46
2022/03/13 04:16:19;;;;;;;;;;;;;;;21.03;36.81;101715.00;5070077;28;4562;-48
2022/03/13 04:18:47;;;;;;;;;;;;;;;21.04;36.90;101699.22;5072752;28;4235;-46
2022/03/13 04:21:13;;;;;;;;;;;;;;;21.04;36.83;101716.50;5072661;28;6312;-46
2022/03/13 04:23:40;;;;;;;;;;;;;;;21.02;37.08;101704.88;5073885;28;4281;-47
2022/03/13 04:26:06;;;;;;;;;;;;;;;21.02;37.00;101701.97;5074961;28;4052;-48
2022/03/13 04:28:33;;;;;;;;;;;;;;;21.00;37.05;101711.25;5073788;28;4476;-46
2022/03/13 04:31:00;;;;;;;;;;;;;;;21.03;36.92;101710.00;5069698;28;4085;-63
2022/03/13 04:33:26;;;;;;;;;;;;;;;21.06;37.16;101702.22;5073866;28;4519;-62
2022/03/13 04:35:55;;;;;;;;;;;;;;;20.89;37.30;101712.81;5069937;28;4172;-62
2022/03/13 04:38:23;;;;;;;;;;;;;;;20.89;36.87;101712.81;5071391;28;4045;-62
2022/03/13 04:40:53;;;;;;;;;;;;;;;20.93;36.79;101713.03;5072954;28;4251;-62
2022/03/13 04:43:20;;;;;;;;;;;;;;;20.95;37.00;101715.28;5072424;28;4090;-62
2022/03/13 04:45:46;;;;;;;;;;;;;;;20.93;37.16;101713.03;5074868;28;4196;-63
2022/03/13 04:48:13;;;;;;;;;;;;;;;20.95;37.24;101718.16;5073133;28;5322;-63
2022/03/13 04:50:39;;;;;;;;;;;;;;;20.96;37.22;101727.53;5073783;28;4069;-62
2022/03/13 04:53:06;;;;;;;;;;;;;;;20.96;37.36;101727.53;5073868;28;6394;-62
2022/03/13 04:55:33;;;;;;;;;;;;;;;20.93;37.28;101718.78;5072068;28;5331;-62
2022/03/13 04:57:59;;;;;;;;;;;;;;;20.95;37.40;101728.94;5072648;28;4171;-63
2022/03/13 05:00:27;;;;;;;;;;;;;;;20.93;37.35;101730.31;5072953;28;5374;-62
2022/03/13 05:02:56;;;;;;;;;;;;;;;20.96;37.43;101736.19;5074168;28;4420;-62
2022/03/13 05:05:23;;;;;;;;;;;;;;;20.95;37.39;101728.94;5071818;28;5332;-62
2022/03/13 05:07:49;;;;;;;;;;;;;;;20.96;37.41;101733.28;5074343;28;4105;-62
2022/03/13 05:10:18;;;;;;;;;;;;;;;20.94;37.42;101731.06;5071220;28;5276;-62
2022/03/13 05:12:44;;;;;;;;;;;;;;;20.93;37.49;101735.31;5073157;28;4258;-62
2022/03/13 05:15:12;;;;;;;;;;;;;;;20.93;37.51;101730.31;5071217;28;4187;-62
2022/03/13 05:17:38;;;;;;;;;;;;;;;20.93;37.44;101730.31;5071947;28;4194;-63
2022/03/13 05:20:05;;;;;;;;;;;;;;;20.95;37.36;101734.69;5072544;28;5286;-63
2022/03/13 05:22:31;;;;;;;;;;;;;;;20.95;37.55;101728.94;5073123;28;4190;-62
2022/03/13 05:24:58;;;;;;;;;;;;;;;20.95;37.58;101726.06;5073771;28;4009;-62
2022/03/13 05:27:25;;;;;;;;;;;;;;;20.96;37.63;101725.44;5072206;28;4084;-63
2022/03/13 05:29:52;;;;;;;;;;;;;;;20.96;37.63;101731.19;5068655;28;4308;-62
2022/03/13 05:32:21;;;;;;;;;;;;;;;20.97;37.56;101734.81;5073129;28;4347;-62
2022/03/13 05:34:47;;;;;;;;;;;;;;;20.96;37.64;101736.94;5074412;28;4274;-63
2022/03/13 05:37:14;;;;;;;;;;;;;;;20.96;37.65;101739.81;5071746;28;5443;-62
2022/03/13 05:39:40;;;;;;;;;;;;;;;20.96;37.64;101744.81;5075405;28;4034;-63
2022/03/13 05:42:07;;;;;;;;;;;;;;;20.94;37.71;101742.59;5073100;28;4533;-63
2022/03/13 05:44:36;;;;;;;;;;;;;;;20.93;37.64;101736.06;5072789;28;4252;-62
2022/03/13 05:47:03;;;;;;;;;;;;;;;20.93;37.59;101733.19;5072663;28;4310;-62
2022/03/13 05:49:29;;;;;;;;;;;;;;;20.93;37.69;101741.06;5073328;28;4302;-63
2022/03/13 05:51:56;;;;;;;;;;;;;;;20.92;37.67;101736.72;5073281;28;4267;-63
2022/03/13 05:54:22;;;;;;;;;;;;;;;20.91;37.71;101738.84;5074661;28;4406;-63
2022/03/13 05:56:49;;;;;;;;;;;;;;;20.90;37.69;101742.34;5079056;28;4161;-63
2022/03/13 05:59:16;;;;;;;;;;;;;;;20.89;37.75;101747.34;5075655;27;4226;-63
2022/03/13 06:01:42;;;;;;;;;;;;;;;20.90;37.73;101737.34;5080203;28;4129;-63
2022/03/13 06:04:09;;;;;;;;;;;;;;;20.90;37.74;101743.09;5078388;28;5320;-62
2022/03/13 06:06:36;;;;;;;;;;;;;;;20.91;37.74;101747.47;5080033;28;4454;-63
2022/03/13 06:09:03;;;;;;;;;;;;;;;20.93;37.76;101743.94;5076071;28;4187;-63
2022/03/13 06:11:29;;;;;;;;;;;;;;;20.93;37.92;101747.56;5077770;28;4207;-63
2022/03/13 06:13:55;;;;;;;;;;;;;;;20.93;37.76;101747.56;5077956;28;4207;-63
2022/03/13 06:16:24;;;;;;;;;;;;;;;20.94;37.94;101736.84;5077350;28;4204;-63
2022/03/13 06:18:50;;;;;;;;;;;;;;;20.96;37.82;101736.19;5077165;28;4130;-63
2022/03/13 06:21:17;;;;;;;;;;;;;;;20.95;37.78;101743.34;5078175;27;4190;-63
2022/03/13 06:23:43;;;;;;;;;;;;;;;20.95;37.80;101743.34;5076880;28;3996;-63
2022/03/13 06:26:09;;;;;;;;;;;;;;;20.95;37.89;101749.09;5075135;27;4232;-63
2022/03/13 06:28:36;;;;;;;;;;;;;;;20.94;37.80;101742.59;5076233;28;4242;-63
2022/03/13 06:31:02;;;;;;;;;;;;;;;20.93;37.90;101738.19;5074303;28;4967;-63
2022/03/13 06:33:30;;;;;;;;;;;;;;;20.92;37.97;101739.59;5077700;27;4246;-63
2022/03/13 06:35:57;;;;;;;;;;;;;;;20.91;37.78;101738.84;5075975;28;4176;-63
2022/03/13 06:38:23;;;;;;;;;;;;;;;20.91;37.83;101744.59;5074700;28;4092;-63
2022/03/13 06:40:51;;;;;;;;;;;;;;;20.89;37.76;101740.84;5075154;27;4060;-63
2022/03/13 06:43:17;;;;;;;;;;;;;;;20.89;37.85;101746.59;5075179;28;4169;-63
2022/03/13 06:45:44;;;;;;;;;;;;;;;20.89;37.81;101737.94;5075645;28;3990;-63
2022/03/13 06:48:11;;;;;;;;;;;;;;;20.88;37.76;101736.47;5075250;28;4240;-63
2022/03/13 06:50:38;;;;;;;;;;;;;;;20.88;37.72;101740.09;5077203;28;4355;-63
2022/03/13 06:53:04;;;;;;;;;;;;;;;20.89;37.53;101741.59;5078174;28;4898;-63
2022/03/13 06:55:31;;;;;;;;;;;;;;;20.89;37.74;101732.97;5077608;27;5238;-63
2022/03/13 06:57:58;;;;;;;;;;;;;;;20.92;37.69;101736.72;5075097;28;5377;-64
2022/03/13 07:00:24;;;;;;;;;;;;;;;20.93;37.78;101736.06;5074021;28;4106;-63
2022/03/13 07:02:51;;;;;;;;;;;;;;;20.93;37.64;101733.19;5077690;28;4244;-63
2022/03/13 07:05:19;;;;;;;;;;;;;;;20.93;37.75;101736.06;5075128;28;4193;-63
2022/03/13 07:07:45;;;;;;;;;;;;;;;20.93;37.69;101744.69;5072102;28;5381;-63
2022/03/13 07:10:12;;;;;;;;;;;;;;;20.95;37.77;101743.34;5070474;27;4248;-63
2022/03/13 07:12:40;;;;;;;;;;;;;;;20.93;37.78;101744.69;5072752;28;5423;-62
2022/03/13 07:15:10;;;;;;;;;;;;;;;20.93;37.83;101741.81;5071867;28;5420;-62
2022/03/13 07:17:36;;;;;;;;;;;;;;;20.93;37.78;101736.06;5072918;28;4043;-63
2022/03/13 07:20:03;;;;;;;;;;;;;;;20.93;37.77;101741.06;5073907;28;5279;-63
2022/03/13 07:22:29;;;;;;;;;;;;;;;20.92;37.79;101740.34;5073257;28;4151;-63
2022/03/13 07:24:56;;;;;;;;;;;;;;;20.91;37.82;101744.59;5074427;28;4249;-63
2022/03/13 07:27:22;;;;;;;;;;;;;;;20.89;37.63;101741.59;5074226;28;4049;-63
2022/03/13 07:29:50;;;;;;;;;;;;;;;20.90;37.74;101748.84;5074968;28;4337;-63
2022/03/13 07:32:16;;;;;;;;;;;;;;;20.90;37.66;101748.84;5072251;28;4205;-64
2022/03/13 07:34:42;;;;;;;;;;;;;;;20.93;37.02;101753.34;5074588;28;4188;-63
2022/03/13 07:37:10;;;;;;;;;;;;;;;20.96;37.02;101739.06;5073122;28;4373;-66
2022/03/13 07:39:37;;;;;;;;;;;;;;;21.02;37.46;101733.66;5072059;28;4304;-63
2022/03/13 07:42:09;;;;;;;;;;;;;;;21.04;37.23;101742.41;5071255;28;4178;-63
2022/03/13 07:44:35;;;;;;;;;;;;;;;21.08;37.41;101748.41;5072323;28;5634;-63
2022/03/13 07:47:01;;;;;;;;;;;;;;;21.05;37.40;101738.16;5072312;27;4241;-64
2022/03/13 07:49:28;;;;;;;;;;;;;;;21.00;37.27;101745.06;5075844;28;4311;-63
2022/03/13 07:51:54;;;;;;;;;;;;;;;20.96;37.38;101739.06;5067437;28;5231;-63
2022/03/13 07:54:20;;;;;;;;;;;;;;;20.99;37.38;101740.69;5075651;27;4188;-64
2022/03/13 07:56:47;;;;;;;;;;;;;;;20.99;37.42;101743.56;5073321;28;4240;-63
2022/03/13 07:59:13;;;;;;;;;;;;;;;21.01;37.45;101740.81;5073998;28;5470;-63
2022/03/13 08:01:39;;;;;;;;;;;;;;;21.01;37.34;101737.94;5073705;28;6351;-63
2022/03/13 08:04:08;;;;;;;;;;;;;;;21.01;37.47;101743.69;5074064;28;4095;-63
2022/03/13 08:06:35;;;;;;;;;;;;;;;21.01;37.50;101753.06;5072498;28;4172;-63
2022/03/13 08:09:04;;;;;;;;;;;;;;;21.01;37.32;101746.56;5071437;28;4048;-64
2022/03/13 08:11:34;;;;;;;;;;;;;;;21.01;37.49;101746.56;5073792;28;4177;-64
2022/03/13 08:14:00;;;;;;;;;;;;;;;21.01;37.43;101758.09;5072023;27;4241;-64
2022/03/13 08:16:29;;;;;;;;;;;;;;;21.00;37.50;101756.56;5074865;28;4244;-63
2022/03/13 08:18:56;;;;;;;;;;;;;;;20.99;37.32;101744.31;5073902;28;5236;-64
2022/03/13 08:21:22;;;;;;;;;;;;;;;21.00;37.34;101747.94;5071213;28;5184;-63
2022/03/13 08:23:50;;;;;;;;;;;;;;;21.01;37.59;101758.84;5072694;28;4549;-64
2022/03/13 08:26:17;;;;;;;;;;;;;;;21.01;37.46;101752.34;5071199;28;4191;-64
2022/03/13 08:28:44;;;;;;;;;;;;;;;21.03;37.29;101743.81;5075084;27;5529;-63
2022/03/13 08:31:11;;;;;;;;;;;;;;;21.03;37.37;101749.56;5072592;28;4271;-63
2022/03/13 08:33:37;;;;;;;;;;;;;;;21.01;37.43;101746.56;5072818;27;5548;-63
2022/03/13 08:36:04;;;;;;;;;;;;;;;21.02;37.41;101736.53;5074080;27;6318;-64
2022/03/13 08:38:30;;;;;;;;;;;;;;;21.03;37.41;101732.28;5073538;28;4251;-63
2022/03/13 08:40:57;;;;;;;;;;;;;;;21.01;37.50;101729.28;5074801;27;4239;-63
2022/03/13 08:43:23;;;;;;;;;;;;;;;21.02;37.31;101745.19;5072925;28;5012;-64
2022/03/13 08:45:50;;;;;;;;;;;;;;;21.03;37.47;101740.94;5073672;27;5517;-63
2022/03/13 08:48:21;;;;;;;;;;;;;;;21.04;37.42;101742.41;5072551;28;5364;-63
2022/03/13 08:50:47;;;;;;;;;;;;;;;21.04;37.27;101740.28;5072552;28;4254;-63
2022/03/13 08:53:14;;;;;;;;;;;;;;;21.05;37.36;101741.03;5074189;28;4188;-64
2022/03/13 08:55:40;;;;;;;;;;;;;;;21.07;37.37;101741.16;5071831;27;4195;-64
2022/03/13 08:58:07;;;;;;;;;;;;;;;21.06;37.40;101745.41;5072113;27;4268;-63
2022/03/13 09:00:34;;;;;;;;;;;;;;;21.05;37.44;101732.38;5071417;28;5261;-63
2022/03/13 09:03:01;;;;;;;;;;;;;;;21.05;37.42;101741.03;5072800;28;5777;-64
2022/03/13 09:05:28;;;;;;;;;;;;;;;21.06;37.45;101731.03;5072149;28;4369;-63
2022/03/13 09:07:54;;;;;;;;;;;;;;;21.03;37.34;101721.53;5075258;28;5337;-64
2022/03/13 09:10:20;;;;;;;;;;;;;;;21.04;37.43;101728.03;5071222;28;4889;-63
2022/03/13 09:12:47;;;;;;;;;;;;;;;21.04;37.45;101733.78;5073986;28;5279;-63
2022/03/13 09:15:13;;;;;;;;;;;;;;;21.05;37.43;101738.16;5073778;28;4155;-63
2022/03/13 09:17:39;;;;;;;;;;;;;;;21.03;37.31;101738.06;5071546;28;5827;-63
2022/03/13 09:20:06;;;;;;;;;;;;;;;21.03;37.41;101726.53;5073215;28;4306;-64
2022/03/13 09:22:34;;;;;;;;;;;;;;;21.03;37.47;101726.53;5072377;28;4183;-63
2022/03/13 09:25:00;;;;;;;;;;;;;;;21.02;37.26;101730.78;5072298;28;4165;-63
2022/03/13 09:27:26;;;;;;;;;;;;;;;21.01;37.38;101730.03;5071795;28;4542;-64
2022/03/13 09:29:57;;;;;;;;;;;;;;;21.11;37.17;101738.50;5070749;28;4246;-63
2022/03/13 09:32:23;;;;;;;;;;;;;;;21.14;37.29;101731.47;5072438;28;5495;-63
2022/03/13 09:34:49;;;;;;;;;;;;;;;21.15;37.03;101730.09;5073635;28;4227;-63
2022/03/13 09:37:16;;;;;;;;;;;;;;;21.16;37.09;101728.72;5071472;28;4546;-63
2022/03/13 09:40:03;;;;;;;;;;;;;;;21.16;37.20;101731.59;5070536;28;5265;-63
2022/03/13 09:42:29;;;;;;;;;;;;;;;21.17;37.22;101729.47;5072365;28;4251;-63
2022/03/13 09:44:55;;;;;;;;;;;;;;;21.16;37.17;101728.72;5072604;28;4104;-63
2022/03/13 09:47:22;;;;;;;;;;;;;;;21.16;37.13;101730.84;5072777;28;6246;-63
2022/03/13 09:49:50;;;;;;;;;;;;;;;21.14;37.13;101728.59;5071700;28;4027;-63
2022/03/13 09:52:17;;;;;;;;;;;;;;;20.91;36.61;101735.19;5065266;28;4150;-62
2022/03/13 09:54:43;;;;;;;;;;;;;;;20.99;36.14;101732.78;5063331;28;4408;-68
2022/03/13 09:57:09;;;;;;;;;;;;;;;21.14;36.05;101737.22;5068759;28;4281;-65
2022/03/13 09:59:36;;;;;;;;;;;;;;;21.17;36.26;101735.97;5071640;28;4357;-65
2022/03/13 10:02:06;;;;;;;;;;;;;;;21.21;36.13;101730.47;5070306;28;4276;-62
2022/03/13 10:04:33;;;;;;;;;;;;;;;21.31;36.29;101727.41;5073811;28;4236;-64
2022/03/13 10:07:01;;;;;;;;;;;;;;;21.36;36.41;101732.00;5074677;28;5322;-64
2022/03/13 10:09:28;;;;;;;;;;;;;;;21.28;36.53;101723.66;5072436;28;4095;-65
2022/03/13 10:12:04;;;;;;;;;;;;;;;21.38;36.58;101731.38;5071962;28;4188;-65
2022/03/13 10:14:30;;;;;;;;;;;;;;;21.42;36.88;101720.09;5074203;28;4532;-67
2022/03/13 10:16:57;;;;;;;;;;;;;;;21.38;37.16;101719.84;5075686;28;4284;-69
2022/03/13 10:19:25;;;;;;;;;;;;;;;21.41;37.45;101715.72;5071954;28;4923;-71
2022/03/13 10:21:58;;;;;;;;;;;;;;;21.42;37.09;101714.34;5071374;28;4254;-69
2022/03/13 10:24:25;;;;;;;;;;;;;;;21.46;37.17;101711.66;5068537;28;4090;-65
2022/03/13 10:26:57;;;;;;;;;;;;;;;21.43;37.35;101698.53;5071336;27;4015;-65
2022/03/13 10:29:30;;;;;;;;;;;;;;;21.30;37.07;101700.72;5074662;28;4205;-66
2022/03/13 10:31:57;;;;;;;;;;;;;;;21.26;37.17;101696.88;5075253;28;4263;-65
2022/03/13 10:34:24;;;;;;;;;;;;;;;21.25;37.22;101701.84;5073421;28;4048;-65
2022/03/13 10:36:50;;;;;;;;;;;;;;;21.31;37.04;101702.19;5073093;28;5306;-65
2022/03/13 10:39:17;;;;;;;;;;;;;;;21.30;37.22;101692.06;5072821;28;4258;-65
2022/03/13 10:41:47;;;;;;;;;;;;;;;21.30;37.19;101686.31;5076628;28;4085;-65
2022/03/13 10:44:14;;;;;;;;;;;;;;;21.30;37.10;101692.06;5079818;28;4281;-65
2022/03/13 10:46:40;;;;;;;;;;;;;;;21.30;37.10;101685.53;5080320;28;4200;-65
2022/03/13 10:49:08;;;;;;;;;;;;;;;21.30;37.13;101697.06;5075545;28;5479;-63
2022/03/13 10:51:36;;;;;;;;;;;;;;;21.28;37.27;101689.09;5078068;28;4205;-66
2022/03/13 10:54:02;;;;;;;;;;;;;;;21.28;37.13;101691.19;5075781;27;4336;-66
2022/03/13 10:56:29;;;;;;;;;;;;;;;21.27;37.04;101690.44;5076773;28;4103;-66
2022/03/13 10:58:55;;;;;;;;;;;;;;;21.27;37.10;101681.81;5077378;28;4152;-66
2022/03/13 11:01:23;;;;;;;;;;;;;;;21.27;37.28;101690.44;5078075;28;4241;-66
2022/03/13 11:03:51;;;;;;;;;;;;;;;21.27;37.12;101687.56;5075107;28;4213;-66
2022/03/13 11:06:18;;;;;;;;;;;;;;;21.29;36.99;101684.81;5076442;28;5949;-66
2022/03/13 11:08:44;;;;;;;;;;;;;;;21.27;37.15;101690.44;5077918;28;4254;-63
2022/03/13 11:11:15;;;;;;;;;;;;;;;21.26;37.04;101685.34;5077511;28;4146;-63
2022/03/13 11:13:42;;;;;;;;;;;;;;;21.26;37.14;101691.84;5076345;28;4403;-63
2022/03/13 11:16:09;;;;;;;;;;;;;;;21.26;37.26;101691.09;5074497;28;4453;-63
2022/03/13 11:18:37;;;;;;;;;;;;;;;21.27;37.16;101684.69;5073149;27;5402;-63
2022/03/13 11:21:06;;;;;;;;;;;;;;;21.28;37.19;101689.09;5076818;28;4166;-64
2022/03/13 11:23:33;;;;;;;;;;;;;;;21.26;37.31;101685.34;5074307;28;4157;-63
2022/03/13 11:26:00;;;;;;;;;;;;;;;21.27;37.75;101684.69;5077143;28;4235;-63
2022/03/13 11:28:29;;;;;;;;;;;;;;;21.27;37.65;101676.03;5076001;27;4136;-63
2022/03/13 11:30:56;;;;;;;;;;;;;;;21.28;37.58;101676.78;5078072;28;4164;-64
2022/03/13 11:33:29;;;;;;;;;;;;;;;21.28;37.84;101671.78;5075025;28;4164;-63
2022/03/13 11:36:09;;;;;;;;;;;;;;;21.29;37.76;101679.03;5073966;28;5208;-63
2022/03/13 11:38:40;;;;;;;;;;;;;;;21.30;37.86;101674.78;5075053;28;4178;-63
2022/03/13 11:41:12;;;;;;;;;;;;;;;21.30;37.99;101676.91;5076488;28;4197;-62
2022/03/13 11:43:39;;;;;;;;;;;;;;;21.29;38.06;101678.31;5105862;27;4216;-63
2022/03/13 11:46:05;;;;;;;;;;;;;;;21.29;38.15;101667.53;5076569;28;4133;-63
2022/03/13 11:48:32;;;;;;;;;;;;;;;21.31;38.14;101676.28;5075332;28;4409;-63
2022/03/13 11:50:59;;;;;;;;;;;;;;;21.34;37.96;101677.88;5074047;28;4238;-64
2022/03/13 11:53:42;;;;;;;;;;;;;;;21.34;38.06;101674.25;5074176;28;4020;-63
2022/03/13 11:56:27;;;;;;;;;;;;;;;21.37;38.15;101672.22;5073666;28;4212;-64
2022/03/13 11:58:55;;;;;;;;;;;;;;;21.38;38.46;101673.75;5078706;28;4208;-68
2022/03/13 12:01:27;;;;;;;;;;;;;;;21.50;38.21;101677.31;5072780;28;5251;-62
2022/03/13 12:04:14;;;;;;;;;;;;;;;21.49;38.33;101665.03;5077236;28;4061;-62
2022/03/13 12:06:43;;;;;;;;;;;;;;;21.48;38.47;101662.78;5077633;28;4055;-61
2022/03/13 12:09:11;;;;;;;;;;;;;;;21.50;38.47;101663.66;5073436;28;4287;-63
2022/03/13 12:11:41;;;;;;;;;;;;;;;21.48;38.54;101660.66;5074827;28;4200;-62
2022/03/13 12:14:10;;;;;;;;;;;;;;;21.36;34.97;101662.09;5073329;28;4168;-61
2022/03/13 12:16:37;;;;;;;;;;;;;;;21.18;34.80;101656.81;5076807;28;4171;-61
2022/03/13 12:19:05;;;;;;;;;;;;;;;21.17;35.67;101660.34;5076633;28;4264;-60
2022/03/13 12:21:32;;;;;;;;;;;;;;;21.25;34.75;101658.66;5077503;28;4055;-62
2022/03/13 12:24:12;;;;;;;;;;;;;;;21.23;35.07;101652.78;5068496;27;4565;-64
2022/03/13 12:26:39;;;;;;;;;;;;;;;21.32;36.16;101648.94;5075012;28;4269;-61
2022/03/13 12:29:07;;;;;;;;;;;;;;;21.42;35.94;101653.84;5076111;28;4025;-62
2022/03/13 12:31:45;;;;;;;;;;;;;;;21.45;36.06;101650.41;5077418;28;4222;-61
2022/03/13 12:34:12;;;;;;;;;;;;;;;21.48;36.17;101654.88;5078740;28;4248;-61
2022/03/13 12:36:39;;;;;;;;;;;;;;;21.50;36.41;101648.50;5077703;28;4282;-61
2022/03/13 12:39:11;;;;;;;;;;;;;;;21.52;36.33;101660.13;5077673;27;4227;-61
2022/03/13 12:41:43;;;;;;;;;;;;;;;21.51;36.41;101652.88;5075063;28;4054;-61
2022/03/13 12:44:09;;;;;;;;;;;;;;;21.53;36.40;101652.97;5076475;28;5302;-61
2022/03/13 12:46:36;;;;;;;;;;;;;;;21.50;36.51;101657.13;5077224;28;4352;-62
2022/03/13 12:49:03;;;;;;;;;;;;;;;21.54;36.49;101655.22;5079585;28;4245;-61